Time;durP1;ratioP1;P1;durP2;ratioP2;P2;SDS_P1;SDS_P2;PMS_P1;PMS_P2;Temp;Humidity;BMP_temperature;BMP_pressure;BME280_temperature;BME280_humidity;BME280_pressure;Samples;Min_cycle;Max_cycle;Signal;HPM_P1;HPM_P2
2022/01/17 00:01:49;;;;;;;10.17;6.47;;;5.20;99.90;;;;;;5093785;28;20670;-51
2022/01/17 00:04:17;;;;;;;7.67;6.27;;;5.10;99.90;;;;;;5093628;28;20475;-51
2022/01/17 00:06:44;;;;;;;9.80;7.53;;;5.10;99.90;;;;;;5093494;28;20500;-51
2022/01/17 00:09:12;;;;;;;7.40;6.70;;;5.00;99.90;;;;;;5093470;28;21008;-51
2022/01/17 00:11:44;;;;;;;6.47;5.50;;;5.10;99.90;;;;;;5093774;28;20524;-51
2022/01/17 00:14:15;;;;;;;7.90;6.50;;;5.10;99.90;;;;;;5092751;28;20428;-51
2022/01/17 00:16:51;;;;;;;6.33;5.73;;;5.10;99.90;;;;;;5093439;28;20929;-51
2022/01/17 00:19:36;;;;;;;7.60;6.90;;;5.10;99.90;;;;;;5093769;28;20489;-51
2022/01/17 00:22:03;;;;;;;6.97;6.30;;;5.10;99.90;;;;;;5093450;28;20499;-51
2022/01/17 00:24:30;;;;;;;9.10;7.20;;;5.20;99.90;;;;;;5093257;28;20479;-51
2022/01/17 00:26:58;;;;;;;8.13;7.27;;;5.20;99.90;;;;;;5093189;28;20891;-51
2022/01/17 00:29:26;;;;;;;7.60;6.90;;;5.20;99.90;;;;;;5093562;28;20443;-51
2022/01/17 00:31:53;;;;;;;6.80;5.57;;;5.20;99.90;;;;;;5093081;28;20479;-51
2022/01/17 00:34:20;;;;;;;7.67;6.90;;;5.20;99.90;;;;;;5093385;28;20526;-51
2022/01/17 00:36:47;;;;;;;8.07;6.43;;;5.20;99.90;;;;;;5093495;28;20973;-51
2022/01/17 00:39:15;;;;;;;7.43;6.60;;;5.20;99.90;;;;;;5093190;28;20456;-51
2022/01/17 00:41:42;;;;;;;7.10;6.33;;;5.20;99.90;;;;;;5092981;28;20465;-51
2022/01/17 00:44:11;;;;;;;8.20;6.90;;;5.20;99.90;;;;;;5093022;28;20450;-50
2022/01/17 00:46:38;;;;;;;8.17;6.43;;;5.10;99.90;;;;;;5093540;28;20515;-51
2022/01/17 00:49:10;;;;;;;7.67;6.87;;;5.20;99.90;;;;;;5092897;28;20543;-51
2022/01/17 00:51:37;;;;;;;7.60;6.77;;;5.30;99.90;;;;;;5092892;28;20474;-51
2022/01/17 00:54:04;;;;;;;9.47;8.47;;;5.20;99.90;;;;;;5093199;28;20484;-51
2022/01/17 00:56:31;;;;;;;8.97;6.93;;;5.20;99.90;;;;;;5092757;28;20439;-51
2022/01/17 00:58:59;;;;;;;8.10;6.97;;;5.30;99.90;;;;;;5091935;28;20454;-51
2022/01/17 01:01:27;;;;;;;8.03;6.63;;;5.40;99.90;;;;;;5092579;28;20962;-51
2022/01/17 01:03:55;;;;;;;8.03;7.00;;;5.20;99.90;;;;;;5091285;28;20798;-51
2022/01/17 01:06:22;;;;;;;10.23;9.00;;;5.30;99.90;;;;;;5091350;28;20499;-51
2022/01/17 01:08:49;;;;;;;10.60;7.80;;;5.20;99.90;;;;;;5092374;28;20482;-51
2022/01/17 01:11:16;;;;;;;11.30;8.27;;;5.20;99.90;;;;;;5092540;28;20454;-51
2022/01/17 01:13:43;;;;;;;13.83;10.00;;;5.10;99.90;;;;;;5092538;28;20957;-51
2022/01/17 01:16:23;;;;;;;12.87;10.77;;;5.00;99.90;;;;;;5092758;28;20525;-51
2022/01/17 01:19:25;;;;;;;13.27;9.57;;;5.00;99.90;;;;;;5092629;28;20477;-51
2022/01/17 01:27:42;;;;;;;10.67;9.57;;;5.10;99.90;;;;;;5096766;28;20415;-51
2022/01/17 01:30:12;;;;;;;13.97;9.47;;;4.80;99.90;;;;;;5097005;28;20748;-51
2022/01/17 01:32:45;;;;;;;15.50;10.97;;;4.70;99.90;;;;;;5096728;28;20529;-51
2022/01/17 01:35:16;;;;;;;15.40;11.57;;;4.60;99.90;;;;;;5096595;28;20783;-51
2022/01/17 01:37:46;;;;;;;15.60;12.20;;;4.70;99.90;;;;;;5096380;28;20432;-51
2022/01/17 01:40:13;;;;;;;15.47;11.00;;;4.60;99.90;;;;;;5096795;28;20455;-51
2022/01/17 01:42:41;;;;;;;16.40;12.00;;;4.40;99.90;;;;;;5096529;28;20443;-51
2022/01/17 01:45:09;;;;;;;14.20;10.87;;;4.50;99.90;;;;;;5096273;28;20479;-51
2022/01/17 01:47:37;;;;;;;13.07;10.90;;;4.50;99.90;;;;;;5096620;28;20459;-51
2022/01/17 01:50:06;;;;;;;18.80;11.70;;;4.40;99.90;;;;;;5096662;28;20450;-51
2022/01/17 01:52:34;;;;;;;16.80;11.50;;;4.40;99.90;;;;;;5096050;28;20972;-51
2022/01/17 01:55:01;;;;;;;13.00;10.10;;;4.40;99.90;;;;;;5096477;28;20531;-51
2022/01/17 01:57:28;;;;;;;13.97;10.80;;;4.60;99.90;;;;;;5096561;28;20447;-51
2022/01/17 01:59:56;;;;;;;16.40;12.30;;;4.60;99.90;;;;;;5096124;28;20444;-51
2022/01/17 02:02:23;;;;;;;16.83;10.67;;;4.60;99.90;;;;;;5096312;28;20467;-51
2022/01/17 02:04:51;;;;;;;15.70;11.50;;;4.50;99.90;;;;;;5096092;28;20729;-51
2022/01/17 02:07:20;;;;;;;12.50;10.57;;;4.60;99.90;;;;;;5096343;28;20447;-51
2022/01/17 02:09:48;;;;;;;11.60;9.10;;;4.50;99.90;;;;;;5095689;28;20483;-51
2022/01/17 02:12:20;;;;;;;14.10;11.00;;;4.60;99.90;;;;;;5096089;28;20889;-51
2022/01/17 02:14:48;;;;;;;16.23;11.33;;;4.70;99.90;;;;;;5096357;28;20519;-51
2022/01/17 02:17:16;;;;;;;12.37;9.53;;;4.80;99.90;;;;;;5096063;28;20516;-51
2022/01/17 02:19:46;;;;;;;16.50;9.60;;;4.80;99.90;;;;;;5095897;28;20447;-51
2022/01/17 02:22:15;;;;;;;13.40;10.17;;;4.90;99.90;;;;;;5096004;28;20471;-51
2022/01/17 02:24:43;;;;;;;11.30;8.87;;;4.90;99.90;;;;;;5096009;28;20453;-51
2022/01/17 02:27:10;;;;;;;13.23;9.97;;;4.80;99.90;;;;;;5095747;28;20479;-51
2022/01/17 02:29:37;;;;;;;14.20;10.70;;;4.80;99.90;;;;;;5095895;28;20553;-51
2022/01/17 02:32:05;;;;;;;13.00;9.80;;;4.80;99.90;;;;;;5095892;28;20470;-51
2022/01/17 02:34:32;;;;;;;15.47;10.60;;;4.80;99.90;;;;;;5095414;28;20454;-51
2022/01/17 02:36:59;;;;;;;14.10;10.07;;;4.90;99.90;;;;;;5094615;28;20799;-51
2022/01/17 02:39:28;;;;;;;9.73;8.67;;;4.80;99.90;;;;;;5095791;28;20459;-51
2022/01/17 02:41:55;;;;;;;13.93;9.73;;;4.90;99.90;;;;;;5095488;28;20876;-51
2022/01/17 02:44:22;;;;;;;11.83;9.20;;;4.90;99.90;;;;;;5095188;28;20454;-51
2022/01/17 02:46:50;;;;;;;14.40;10.07;;;4.80;99.90;;;;;;5095461;28;20475;-51
2022/01/17 02:49:17;;;;;;;12.90;9.20;;;4.80;99.90;;;;;;5095334;28;20808;-51
2022/01/17 02:51:48;;;;;;;13.30;10.77;;;5.00;99.90;;;;;;5095240;28;20463;-51
2022/01/17 02:54:15;;;;;;;15.60;10.83;;;5.00;99.90;;;;;;5095183;28;20439;-51
2022/01/17 02:56:43;;;;;;;12.87;9.63;;;5.00;99.90;;;;;;5095209;28;20466;-51
2022/01/17 02:59:11;;;;;;;11.90;9.30;;;5.00;99.90;;;;;;5094940;28;20941;-51
2022/01/17 03:01:38;;;;;;;14.37;10.77;;;4.90;99.90;;;;;;5094917;28;20965;-51
2022/01/17 03:04:05;;;;;;;11.17;9.63;;;5.00;99.90;;;;;;5095119;28;20451;-51
2022/01/17 03:06:33;;;;;;;12.87;9.87;;;5.10;99.90;;;;;;5095043;28;20547;-51
2022/01/17 03:09:00;;;;;;;11.83;8.97;;;5.00;99.90;;;;;;5094692;28;20485;-51
2022/01/17 03:11:29;;;;;;;12.87;10.23;;;5.00;99.90;;;;;;5095016;28;20467;-51
2022/01/17 03:13:58;;;;;;;11.30;9.73;;;5.10;99.90;;;;;;5094680;28;20479;-51
2022/01/17 03:16:30;;;;;;;11.93;9.83;;;5.10;99.90;;;;;;5094648;28;20440;-51
2022/01/17 03:18:58;;;;;;;12.50;9.53;;;5.20;99.90;;;;;;5095074;28;20432;-51
2022/01/17 03:21:27;;;;;;;14.90;11.67;;;5.20;99.90;;;;;;5094863;28;20482;-51
2022/01/17 03:23:54;;;;;;;10.63;8.70;;;5.20;99.90;;;;;;5094871;28;20465;-51
2022/01/17 03:26:21;;;;;;;11.50;9.70;;;5.30;99.90;;;;;;5094886;28;20505;-51
2022/01/17 03:28:48;;;;;;;13.10;10.53;;;5.30;99.90;;;;;;5094430;28;20451;-51
2022/01/17 03:31:17;;;;;;;14.77;12.10;;;5.30;99.90;;;;;;5094641;28;20486;-51
2022/01/17 03:33:44;;;;;;;12.87;9.43;;;5.30;99.90;;;;;;5094396;28;20449;-51
2022/01/17 03:36:11;;;;;;;11.40;9.30;;;5.30;99.90;;;;;;5094660;28;20462;-51
2022/01/17 03:38:38;;;;;;;11.63;9.07;;;5.30;99.90;;;;;;5094386;28;20455;-51
2022/01/17 03:41:07;;;;;;;15.60;11.47;;;5.30;99.90;;;;;;5094500;28;20550;-51
2022/01/17 03:43:35;;;;;;;11.50;9.10;;;5.40;99.90;;;;;;5094215;28;20954;-51
2022/01/17 03:46:02;;;;;;;19.30;9.57;;;5.40;99.90;;;;;;5094121;28;20489;-50
2022/01/17 03:48:32;;;;;;;14.57;9.40;;;5.30;99.90;;;;;;5093884;28;20863;-51
2022/01/17 03:51:00;;;;;;;12.70;10.23;;;5.30;99.90;;;;;;5094322;28;20471;-51
2022/01/17 03:53:28;;;;;;;12.27;10.50;;;5.20;99.90;;;;;;5093932;28;20443;-51
2022/01/17 03:55:56;;;;;;;12.00;9.30;;;5.30;99.90;;;;;;5094124;28;20440;-51
2022/01/17 03:58:25;;;;;;;12.47;9.70;;;5.20;99.90;;;;;;5094061;28;20905;-51
2022/01/17 04:00:55;;;;;;;13.33;10.77;;;5.10;99.90;;;;;;5093836;28;20475;-51
2022/01/17 04:03:22;;;;;;;14.20;10.37;;;5.10;99.90;;;;;;5093785;28;20452;-51
2022/01/17 04:05:51;;;;;;;14.70;11.30;;;5.10;99.90;;;;;;5094155;28;20481;-51
2022/01/17 04:08:18;;;;;;;12.93;10.03;;;4.90;99.90;;;;;;5094022;28;20465;-50
2022/01/17 04:10:45;;;;;;;12.80;9.97;;;4.80;99.90;;;;;;5093506;28;20489;-51
2022/01/17 04:13:12;;;;;;;12.40;9.70;;;5.00;99.90;;;;;;5093676;28;20926;-50
2022/01/17 04:15:40;;;;;;;16.37;10.20;;;5.00;99.90;;;;;;5094086;28;20442;-51
2022/01/17 04:18:10;;;;;;;15.27;11.10;;;5.00;99.90;;;;;;5093767;28;20462;-50
2022/01/17 04:20:39;;;;;;;11.73;10.50;;;5.10;99.90;;;;;;5093969;28;20463;-51
2022/01/17 04:23:09;;;;;;;14.53;11.00;;;4.90;99.90;;;;;;5093599;28;20925;-51
2022/01/17 04:25:38;;;;;;;15.10;11.27;;;4.70;99.90;;;;;;5093358;28;20432;-50
2022/01/17 04:28:07;;;;;;;12.10;10.17;;;4.90;99.90;;;;;;5093389;28;20938;-51
2022/01/17 04:30:34;;;;;;;14.37;10.40;;;4.90;99.90;;;;;;5093735;28;20474;-51
2022/01/17 04:33:01;;;;;;;13.53;10.20;;;4.70;99.90;;;;;;5093606;28;20443;-51
2022/01/17 04:35:29;;;;;;;15.53;10.60;;;4.50;99.90;;;;;;5093292;28;20521;-51
2022/01/17 04:37:59;;;;;;;12.63;9.20;;;4.50;99.90;;;;;;5093418;28;20443;-50
2022/01/17 04:40:34;;;;;;;11.93;10.00;;;4.40;99.90;;;;;;5093725;28;20948;-50
2022/01/17 04:43:03;;;;;;;12.10;9.57;;;4.40;99.90;;;;;;5093571;28;20431;-51
2022/01/17 04:45:30;;;;;;;11.30;9.45;;;4.60;99.90;;;;;;5093075;28;20454;-51
2022/01/17 04:47:57;;;;;;;12.53;10.27;;;4.60;99.90;;;;;;5093553;28;20558;-51
2022/01/17 04:50:26;;;;;;;13.03;10.17;;;4.80;99.90;;;;;;5093009;28;20934;-50
2022/01/17 04:52:57;;;;;;;14.00;11.40;;;4.90;99.90;;;;;;5093389;28;20448;-51
2022/01/17 04:55:25;;;;;;;13.87;10.73;;;4.80;99.90;;;;;;5093455;28;20849;-51
2022/01/17 04:57:56;;;;;;;19.57;12.10;;;4.90;99.90;;;;;;5093064;28;20534;-50
2022/01/17 05:00:25;;;;;;;14.37;11.07;;;4.80;99.90;;;;;;5092915;28;20428;-51
2022/01/17 05:02:52;;;;;;;12.60;10.80;;;4.90;99.90;;;;;;5093233;28;20462;-51
2022/01/17 05:05:20;;;;;;;12.50;10.37;;;4.90;99.90;;;;;;5092988;28;20450;-51
2022/01/17 05:07:48;;;;;;;13.27;9.30;;;5.00;99.90;;;;;;5092961;28;20479;-51
2022/01/17 05:10:18;;;;;;;12.80;9.87;;;4.90;99.90;;;;;;5092539;28;20969;-50
2022/01/17 05:12:48;;;;;;;10.60;8.53;;;5.00;99.90;;;;;;5093247;28;20424;-51
2022/01/17 05:15:25;;;;;;;11.40;9.60;;;5.10;99.90;;;;;;5093167;28;20443;-51
2022/01/17 05:18:23;;;;;;;13.70;9.13;;;5.10;99.90;;;;;;5092779;28;20518;-51
2022/01/17 05:20:50;;;;;;;11.80;8.90;;;4.90;99.90;;;;;;5092666;28;20954;-52
2022/01/17 05:23:17;;;;;;;12.00;9.27;;;4.70;99.90;;;;;;5092467;28;20448;-52
2022/01/17 05:25:44;;;;;;;11.87;9.40;;;4.90;99.90;;;;;;5092401;28;21001;-50
2022/01/17 05:28:11;;;;;;;13.03;9.50;;;4.80;99.90;;;;;;5092726;28;20454;-51
2022/01/17 05:30:41;;;;;;;11.10;8.70;;;4.90;99.90;;;;;;5092789;28;20474;-51
2022/01/17 05:33:08;;;;;;;11.97;8.60;;;4.90;99.90;;;;;;5092449;28;20455;-51
2022/01/17 05:35:35;;;;;;;11.00;9.67;;;5.00;99.90;;;;;;5093012;28;20624;-50
2022/01/17 05:38:02;;;;;;;9.90;8.90;;;4.90;99.90;;;;;;5092633;28;20444;-51
2022/01/17 05:40:30;;;;;;;11.73;9.90;;;4.80;99.90;;;;;;5092549;28;20458;-51
2022/01/17 05:42:57;;;;;;;12.03;8.70;;;4.80;99.90;;;;;;5092783;28;20546;-51
2022/01/17 05:45:24;;;;;;;9.83;8.83;;;4.90;99.90;;;;;;5092489;28;20447;-51
2022/01/17 05:47:53;;;;;;;9.70;8.57;;;4.70;99.90;;;;;;5092662;28;20482;-51
2022/01/17 05:50:20;;;;;;;11.00;8.87;;;4.80;99.90;;;;;;5092535;28;20473;-50
2022/01/17 05:52:47;;;;;;;10.83;8.20;;;4.90;99.90;;;;;;5092868;28;20451;-51
2022/01/17 05:55:16;;;;;;;8.90;7.20;;;4.90;99.90;;;;;;5093031;28;20479;-51
2022/01/17 05:57:44;;;;;;;8.70;7.87;;;4.90;99.90;;;;;;5093017;28;20776;-51
2022/01/17 06:00:14;;;;;;;10.50;7.40;;;4.90;99.90;;;;;;5092654;28;20534;-51
2022/01/17 06:02:41;;;;;;;8.27;6.13;;;4.90;99.90;;;;;;5092422;28;20470;-51
2022/01/17 06:05:12;;;;;;;9.30;7.43;;;4.80;99.90;;;;;;5092617;28;20458;-51
2022/01/17 06:07:39;;;;;;;9.07;8.07;;;4.70;99.90;;;;;;5092710;28;20469;-51
2022/01/17 06:10:07;;;;;;;9.33;8.43;;;4.90;99.90;;;;;;5091862;28;20578;-51
2022/01/17 06:12:34;;;;;;;7.93;7.00;;;5.00;99.90;;;;;;5092731;28;20464;-51
2022/01/17 06:15:02;;;;;;;7.67;6.33;;;5.10;99.90;;;;;;5096234;28;20899;-51
2022/01/17 06:17:29;;;;;;;7.77;6.00;;;5.10;99.90;;;;;;5096231;28;20517;-51
2022/01/17 06:19:56;;;;;;;6.77;6.00;;;5.20;99.90;;;;;;5095889;28;20443;-51
2022/01/17 06:22:25;;;;;;;7.40;6.03;;;5.20;99.90;;;;;;5096058;28;20467;-51
2022/01/17 06:24:52;;;;;;;9.23;7.20;;;5.20;99.90;;;;;;5095804;28;20458;-52
2022/01/17 06:27:20;;;;;;;7.80;5.73;;;5.10;99.90;;;;;;5095412;28;20483;-51
2022/01/17 06:29:47;;;;;;;7.40;6.17;;;5.00;99.90;;;;;;5095848;28;20573;-51
2022/01/17 06:32:15;;;;;;;7.17;6.47;;;5.10;99.90;;;;;;5095679;28;20452;-51
2022/01/17 06:34:42;;;;;;;7.70;7.07;;;5.20;99.90;;;;;;5095716;28;20443;-51
2022/01/17 06:37:09;;;;;;;8.67;6.40;;;5.00;99.90;;;;;;5095601;28;20448;-51
2022/01/17 06:39:37;;;;;;;7.40;6.67;;;4.90;99.90;;;;;;5095555;28;20546;-51
2022/01/17 06:42:06;;;;;;;6.70;6.10;;;4.90;99.90;;;;;;5095486;28;20474;-51
2022/01/17 06:44:33;;;;;;;8.70;6.73;;;5.00;99.90;;;;;;5095824;28;20479;-51
2022/01/17 06:47:00;;;;;;;9.70;6.60;;;5.00;99.90;;;;;;5095340;28;20538;-51
2022/01/17 06:49:28;;;;;;;6.93;6.30;;;5.00;99.90;;;;;;5095043;28;20531;-51
2022/01/17 06:51:55;;;;;;;6.90;5.47;;;5.10;99.90;;;;;;5095192;28;20478;-51
2022/01/17 06:54:22;;;;;;;7.60;6.20;;;5.30;99.90;;;;;;5095155;28;20835;-51
2022/01/17 06:56:51;;;;;;;25.33;7.13;;;5.40;99.90;;;;;;5094858;28;20803;-51
2022/01/17 06:59:18;;;;;;;7.67;6.87;;;5.30;99.90;;;;;;5095035;28;20448;-51
2022/01/17 07:01:45;;;;;;;6.70;5.77;;;5.50;99.90;;;;;;5095540;28;20468;-51
2022/01/17 07:04:12;;;;;;;7.30;6.60;;;5.30;99.90;;;;;;5094803;28;20797;-51
2022/01/17 07:06:40;;;;;;;8.03;7.00;;;5.30;99.90;;;;;;5094928;28;20506;-51
2022/01/17 07:09:09;;;;;;;7.60;6.20;;;5.30;99.90;;;;;;5094912;28;20611;-51
2022/01/17 07:11:38;;;;;;;6.70;6.07;;;5.30;99.90;;;;;;5094877;28;20472;-52
2022/01/17 07:14:08;;;;;;;5.30;4.87;;;5.30;99.90;;;;;;5094933;28;20486;-51
2022/01/17 07:16:36;;;;;;;6.37;5.87;;;5.40;99.90;;;;;;5094959;28;20511;-51
2022/01/17 07:19:03;;;;;;;7.40;6.00;;;5.30;99.90;;;;;;5094898;28;20447;-51
2022/01/17 07:21:31;;;;;;;8.87;6.97;;;5.30;99.90;;;;;;5094453;28;20463;-50
2022/01/17 07:23:58;;;;;;;5.80;5.20;;;5.30;99.90;;;;;;5094530;28;20530;-50
2022/01/17 07:26:25;;;;;;;7.73;6.57;;;5.40;99.90;;;;;;5094781;28;20444;-50
2022/01/17 07:28:53;;;;;;;6.33;5.67;;;5.40;99.90;;;;;;5094685;28;20448;-50
2022/01/17 07:31:21;;;;;;;6.97;6.27;;;5.40;99.90;;;;;;5094284;28;20561;-50
2022/01/17 07:33:49;;;;;;;6.50;5.83;;;5.40;99.90;;;;;;5094519;28;20550;-50
2022/01/17 07:36:19;;;;;;;6.50;5.90;;;5.50;99.90;;;;;;5094919;28;20469;-50
2022/01/17 07:38:47;;;;;;;8.30;5.73;;;5.50;99.90;;;;;;5094537;28;20930;-51
2022/01/17 07:41:14;;;;;;;6.53;5.93;;;5.50;99.90;;;;;;5094253;28;20464;-51
2022/01/17 07:43:42;;;;;;;7.07;5.90;;;5.50;99.90;;;;;;5094021;28;20455;-51
2022/01/17 07:46:19;;;;;;;8.43;5.87;;;5.40;99.90;;;;;;5094594;28;20860;-51
2022/01/17 07:49:03;;;;;;;7.73;5.53;;;5.40;99.90;;;;;;5094061;28;20463;-51
2022/01/17 07:51:31;;;;;;;7.30;6.43;;;5.40;99.90;;;;;;5093693;28;20957;-49
2022/01/17 07:53:58;;;;;;;6.07;5.47;;;5.30;99.90;;;;;;5093812;28;20602;-50
2022/01/17 07:56:26;;;;;;;7.07;6.00;;;5.40;99.90;;;;;;5093606;28;20451;-50
2022/01/17 07:58:53;;;;;;;6.57;5.60;;;5.40;99.90;;;;;;5093737;28;20446;-50
2022/01/17 08:01:21;;;;;;;5.87;5.27;;;5.50;99.90;;;;;;5094132;28;20486;-49
2022/01/17 08:03:49;;;;;;;5.73;5.13;;;5.60;99.90;;;;;;5093722;28;20454;-49
2022/01/17 08:06:16;;;;;;;7.13;5.70;;;5.50;99.90;;;;;;5093460;28;20479;-50
2022/01/17 08:08:43;;;;;;;7.73;6.30;;;5.50;99.90;;;;;;5093635;28;20483;-50
2022/01/17 08:11:11;;;;;;;5.70;4.60;;;5.40;99.90;;;;;;5093644;28;20451;-52
2022/01/17 08:13:38;;;;;;;6.03;5.53;;;5.50;99.90;;;;;;5094043;28;20478;-51
2022/01/17 08:16:05;;;;;;;5.53;5.03;;;5.30;99.90;;;;;;5093799;28;20470;-51
2022/01/17 08:18:33;;;;;;;6.47;5.17;;;5.20;99.90;;;;;;5093787;28;20428;-51
2022/01/17 08:21:03;;;;;;;5.37;4.87;;;5.30;99.90;;;;;;5093426;28;20498;-51
2022/01/17 08:23:31;;;;;;;5.03;4.50;;;5.50;99.90;;;;;;5093748;28;20458;-51
2022/01/17 08:25:58;;;;;;;6.00;4.70;;;5.40;99.90;;;;;;5093369;28;20922;-51
2022/01/17 08:28:25;;;;;;;6.07;5.10;;;5.50;99.90;;;;;;5093194;28;20577;-51
2022/01/17 08:30:52;;;;;;;5.60;5.03;;;5.40;99.90;;;;;;5093461;28;20492;-51
2022/01/17 08:33:19;;;;;;;6.00;5.50;;;5.60;99.90;;;;;;5093205;28;20934;-51
2022/01/17 08:35:46;;;;;;;6.37;5.67;;;5.70;99.90;;;;;;5092886;28;20447;-51
2022/01/17 08:38:15;;;;;;;5.33;4.80;;;5.70;99.90;;;;;;5093036;28;20782;-51
2022/01/17 08:40:42;;;;;;;5.90;5.23;;;5.60;99.90;;;;;;5093334;28;20470;-51
2022/01/17 08:43:09;;;;;;;6.50;5.90;;;5.70;99.90;;;;;;5093142;28;20458;-51
2022/01/17 08:45:37;;;;;;;6.43;5.80;;;5.50;99.90;;;;;;5093094;28;20439;-51
2022/01/17 08:48:05;;;;;;;5.20;4.73;;;5.50;99.90;;;;;;5093248;28;20566;-51
2022/01/17 08:50:32;;;;;;;10.10;4.87;;;5.70;99.90;;;;;;5093023;28;20551;-51
2022/01/17 08:52:59;;;;;;;4.63;4.23;;;5.90;99.90;;;;;;5093186;28;20458;-51
2022/01/17 08:55:28;;;;;;;4.57;4.00;;;5.90;99.90;;;;;;5093501;28;20816;-51
2022/01/17 08:57:55;;;;;;;4.43;4.00;;;5.90;99.90;;;;;;5093185;28;20480;-51
2022/01/17 09:00:22;;;;;;;5.27;4.77;;;6.00;99.90;;;;;;5093087;28;20461;-51
2022/01/17 09:02:49;;;;;;;6.93;4.03;;;5.90;99.90;;;;;;5092901;28;20459;-51
2022/01/17 09:05:17;;;;;;;5.53;4.43;;;5.70;99.90;;;;;;5092707;28;20483;-51
2022/01/17 09:07:44;;;;;;;5.93;4.00;;;5.80;99.90;;;;;;5092475;28;20486;-51
2022/01/17 09:10:11;;;;;;;10.90;4.00;;;5.80;99.90;;;;;;5092480;28;20507;-51
2022/01/17 09:12:40;;;;;;;5.10;4.60;;;5.70;99.90;;;;;;5092720;28;20978;-51
2022/01/17 09:15:08;;;;;;;5.10;4.60;;;5.90;99.90;;;;;;5093001;28;20447;-51
2022/01/17 09:17:35;;;;;;;4.60;3.70;;;6.00;99.90;;;;;;5092873;28;20487;-51
2022/01/17 09:20:02;;;;;;;6.13;5.33;;;6.10;99.90;;;;;;5092943;28;20483;-51
2022/01/17 09:22:30;;;;;;;8.00;4.63;;;6.20;99.90;;;;;;5092436;28;20918;-50
2022/01/17 09:24:57;;;;;;;4.30;3.90;;;6.30;99.90;;;;;;5092955;28;20452;-51
2022/01/17 09:27:25;;;;;;;5.57;5.17;;;6.30;99.90;;;;;;5093311;28;20556;-51
2022/01/17 09:29:53;;;;;;;5.17;4.60;;;6.40;99.90;;;;;;5092843;28;20473;-51
2022/01/17 09:32:20;;;;;;;4.73;4.07;;;6.30;99.90;;;;;;5092217;28;20467;-50
2022/01/17 09:34:48;;;;;;;5.80;4.10;;;6.40;99.90;;;;;;5093103;28;20535;-50
2022/01/17 09:37:15;;;;;;;4.37;3.97;;;6.50;99.90;;;;;;5092602;28;20534;-50
2022/01/17 09:39:42;;;;;;;2.93;2.63;;;6.60;99.90;;;;;;5092851;28;20459;-51
2022/01/17 09:42:11;;;;;;;3.50;2.90;;;6.80;99.90;;;;;;5092758;28;20463;-51
2022/01/17 09:44:39;;;;;;;4.30;3.43;;;6.80;99.90;;;;;;5092610;28;20448;-51
2022/01/17 09:47:09;;;;;;;3.90;3.50;;;6.80;99.90;;;;;;5094283;28;20453;-50
2022/01/17 09:49:41;;;;;;;3.50;3.20;;;6.80;99.90;;;;;;5096529;28;20938;-51
2022/01/17 09:52:33;;;;;;;3.30;3.00;;;6.80;99.90;;;;;;5096706;28;20558;-51
2022/01/17 09:55:06;;;;;;;2.70;2.50;;;6.60;99.90;;;;;;5096808;28;20434;-51
2022/01/17 09:57:39;;;;;;;3.13;2.83;;;6.80;99.90;;;;;;5096220;28;20897;-51
2022/01/17 10:00:08;;;;;;;2.73;2.53;;;6.80;99.90;;;;;;5096434;28;20428;-51
2022/01/17 10:02:37;;;;;;;2.60;2.40;;;6.90;99.90;;;;;;5095924;28;20471;-50
2022/01/17 10:05:08;;;;;;;2.67;2.37;;;7.00;99.90;;;;;;5096486;28;20500;-51
2022/01/17 10:07:55;;;;;;;3.07;2.87;;;7.00;99.90;;;;;;5095944;28;20993;-51
2022/01/17 10:10:45;;;;;;;3.57;3.30;;;7.00;99.90;;;;;;5094840;28;20845;-50
2022/01/17 10:13:14;;;;;;;2.97;2.77;;;7.30;99.90;;;;;;5096271;28;20428;-50
2022/01/17 10:16:00;;;;;;;3.13;2.47;;;7.40;99.90;;;;;;5095726;28;20518;-51
2022/01/17 10:18:38;;;;;;;3.30;2.30;;;7.60;99.90;;;;;;5095409;28;20845;-51
2022/01/17 10:21:10;;;;;;;2.53;2.33;;;7.20;99.90;;;;;;5095977;28;20458;-50
2022/01/17 10:26:56;;;;;;;2.47;2.27;;;7.30;99.90;;;;;;5058753;28;20430;-50
2022/01/17 10:35:21;;;;;;;2.60;2.40;;;7.30;99.90;;;;;;5095549;28;20422;-51
2022/01/17 10:38:05;;;;;;;3.00;2.70;;;7.20;99.90;;;;;;5095759;28;20416;-51
2022/01/17 10:40:35;;;;;;;2.40;2.20;;;7.30;99.90;;;;;;5095942;28;20551;-50
2022/01/17 10:43:04;;;;;;;2.40;2.20;;;7.20;99.90;;;;;;5095796;28;20816;-50
2022/01/17 10:45:38;;;;;;;2.60;2.40;;;7.20;99.90;;;;;;5095435;28;20909;-51
2022/01/17 10:48:06;;;;;;;2.77;2.57;;;7.20;99.90;;;;;;5095621;28;20479;-50
2022/01/17 10:50:37;;;;;;;2.70;2.50;;;7.30;99.90;;;;;;5095510;28;20463;-51
2022/01/17 10:53:07;;;;;;;2.60;2.40;;;7.50;99.90;;;;;;5095633;28;20428;-51
2022/01/17 10:55:36;;;;;;;3.47;2.67;;;7.60;99.90;;;;;;5095730;28;20503;-51
2022/01/17 10:58:07;;;;;;;4.10;3.73;;;7.60;99.90;;;;;;5094598;28;20526;-51
2022/01/17 11:00:36;;;;;;;6.10;5.07;;;7.50;99.90;;;;;;5095254;28;20561;-51
2022/01/17 11:03:05;;;;;;;5.53;4.57;;;7.30;99.90;;;;;;5095027;28;20447;-51
2022/01/17 11:05:33;;;;;;;5.63;5.13;;;7.10;99.90;;;;;;5094731;28;20526;-51
2022/01/17 11:08:02;;;;;;;4.80;4.40;;;7.00;99.90;;;;;;5094206;28;20494;-51
2022/01/17 11:10:31;;;;;;;5.97;5.23;;;7.00;99.90;;;;;;5094106;28;20479;-51
2022/01/17 11:13:02;;;;;;;4.70;4.20;;;6.90;99.90;;;;;;5094830;28;20447;-51
2022/01/17 11:15:33;;;;;;;4.17;3.77;;;6.80;99.90;;;;;;5094602;28;20427;-51
2022/01/17 11:18:04;;;;;;;5.63;4.47;;;7.00;99.90;;;;;;5094585;28;20420;-51
2022/01/17 11:20:34;;;;;;;8.20;4.80;;;7.00;99.90;;;;;;5094530;28;20467;-51
2022/01/17 11:23:03;;;;;;;5.93;5.33;;;7.10;99.90;;;;;;5094825;28;20455;-51
2022/01/17 11:25:34;;;;;;;5.90;5.40;;;6.80;99.90;;;;;;5094689;28;20440;-51
2022/01/17 11:28:04;;;;;;;7.03;6.30;;;6.90;99.90;;;;;;5094820;28;20499;-51
2022/01/17 11:30:37;;;;;;;7.10;5.40;;;6.80;99.90;;;;;;5094348;28;20463;-51
2022/01/17 11:33:07;;;;;;;6.80;6.10;;;6.80;99.90;;;;;;5094752;28;20534;-51
2022/01/17 11:35:37;;;;;;;7.70;6.70;;;6.60;99.90;;;;;;5094174;28;20832;-50
2022/01/17 11:38:06;;;;;;;8.73;6.00;;;6.60;99.90;;;;;;5094328;28;20447;-50
2022/01/17 11:40:35;;;;;;;6.10;5.53;;;6.50;99.90;;;;;;5094504;28;20463;-50
2022/01/17 11:43:17;;;;;;;5.60;5.10;;;6.60;99.90;;;;;;5094629;28;20447;-51
2022/01/17 11:45:45;;;;;;;5.47;5.00;;;6.70;99.90;;;;;;5094221;28;20921;-50
2022/01/17 11:48:27;;;;;;;6.37;5.43;;;6.50;99.90;;;;;;5094289;28;20521;-51
2022/01/17 11:50:56;;;;;;;6.83;5.60;;;6.30;99.90;;;;;;5094063;28;20539;-50
2022/01/17 11:53:43;;;;;;;8.10;6.17;;;6.30;99.90;;;;;;5094075;28;20934;-51
2022/01/17 11:56:11;;;;;;;5.67;5.07;;;6.30;99.90;;;;;;5094361;28;20435;-50
2022/01/17 11:58:41;;;;;;;7.03;4.60;;;6.20;99.90;;;;;;5094180;28;20439;-52
2022/01/17 12:01:18;;;;;;;5.40;4.70;;;6.20;99.90;;;;;;5093832;28;20520;-50
2022/01/17 12:03:47;;;;;;;5.90;4.50;;;6.20;99.90;;;;;;5093828;28;20497;-51
2022/01/17 12:06:34;;;;;;;6.27;5.47;;;6.30;99.90;;;;;;5093638;28;20448;-50
2022/01/17 12:09:23;;;;;;;7.43;4.73;;;6.20;99.90;;;;;;5093418;28;20495;-51
2022/01/17 12:12:11;;;;;;;4.80;4.40;;;6.20;99.90;;;;;;5093105;28;20854;-51
2022/01/17 12:14:42;;;;;;;4.77;4.10;;;6.40;99.90;;;;;;5093691;28;20522;-51
2022/01/17 12:17:29;;;;;;;4.27;3.97;;;6.40;99.90;;;;;;5093394;28;20790;-51
2022/01/17 12:20:21;;;;;;;7.63;4.43;;;6.40;99.90;;;;;;5093654;28;20910;-51
2022/01/17 12:22:57;;;;;;;4.73;4.30;;;6.30;99.90;;;;;;5092983;28;20447;-50
2022/01/17 12:25:35;;;;;;;4.40;4.00;;;6.30;99.90;;;;;;5093395;28;20436;-51
2022/01/17 12:28:27;;;;;;;4.60;4.20;;;6.30;99.90;;;;;;5093411;28;20444;-51
2022/01/17 12:30:57;;;;;;;7.10;5.23;;;6.40;99.90;;;;;;5093365;28;20808;-51
2022/01/17 12:33:37;;;;;;;7.07;4.13;;;6.50;99.90;;;;;;5093412;28;20449;-51
2022/01/17 12:36:06;;;;;;;3.80;3.40;;;6.60;99.90;;;;;;5093295;28;20523;-51
2022/01/17 12:38:37;;;;;;;5.67;4.27;;;6.40;99.90;;;;;;5092765;28;20979;-51
2022/01/17 12:41:06;;;;;;;4.97;4.33;;;6.50;99.90;;;;;;5093416;28;20467;-50
2022/01/17 12:43:35;;;;;;;4.83;4.40;;;6.30;99.90;;;;;;5092818;28;20447;-51
2022/01/17 12:46:05;;;;;;;5.03;4.53;;;6.30;99.90;;;;;;5092788;28;20447;-52
2022/01/17 12:48:34;;;;;;;4.10;3.70;;;6.50;99.90;;;;;;5093203;28;20521;-50
2022/01/17 12:51:08;;;;;;;5.47;4.97;;;6.70;99.90;;;;;;5092850;28;20539;-52
2022/01/17 12:53:36;;;;;;;3.93;3.53;;;6.60;99.90;;;;;;5092958;28;20482;-52
2022/01/17 12:56:06;;;;;;;5.03;4.00;;;6.40;99.90;;;;;;5092581;28;20533;-50
2022/01/17 12:58:35;;;;;;;4.57;3.83;;;6.30;99.90;;;;;;5092867;28;20536;-50
2022/01/17 13:01:04;;;;;;;4.00;3.43;;;6.40;99.90;;;;;;5093013;28;20966;-50
2022/01/17 13:03:35;;;;;;;6.50;4.20;;;6.40;99.90;;;;;;5092975;28;20542;-50
2022/01/17 13:06:04;;;;;;;5.07;4.20;;;6.50;99.90;;;;;;5092825;28;20789;-50
2022/01/17 13:08:32;;;;;;;4.47;4.07;;;6.70;99.90;;;;;;5092637;28;20578;-50
2022/01/17 13:11:00;;;;;;;5.30;3.80;;;6.70;99.90;;;;;;5093032;28;20468;-50
2022/01/17 13:13:30;;;;;;;5.60;3.93;;;6.70;99.90;;;;;;5093026;28;20447;-50
2022/01/17 13:16:00;;;;;;;4.90;4.40;;;6.90;99.90;;;;;;5092982;28;20524;-50
2022/01/17 13:18:29;;;;;;;6.03;4.90;;;6.70;99.90;;;;;;5092805;28;20969;-50